• Join FlightAware (Why Join?)
  • Login
  • US Flag 
04:59AM EDT


 

Airport Tracker/Info


-or-


 

Live Flight TrackerFlight Track Log ✈ N349MC ✈ 27-10-2013 ✈ KFTW - KHOU

Flight Track Log - Related Links

Times and Time Zones

All times are in EDT time to prevent confusion due to time zone crossing. See the N349MC flight status page for this flight to view local times or setup timezone preferences in your user account.

Time Position Orientation Groundspeed Altitude Reporting Facility
EDT Latitude Longitude Course Direction KTS MPH feet Rate Location/Type
08:15AM 32.8333 -97.3667 337° Northwest 192 221 1,200  Level Dallas / Fort Worth TRACON
08:16AM 32.8667 -97.3833 337° Northwest 208 239 3,200 2,520 Climbing Dallas / Fort Worth TRACON
08:17AM 32.8919 -97.4072 322° Northwest 221 254 4,500 2,520 Climbing Fort Worth Center
08:18AM 32.8539 -97.4683 233° Southwest 251 289 7,300 1,980 Climbing Fort Worth Center
08:19AM 32.7789 -97.4483 167° South 281 323 8,500 1,740 Climbing Fort Worth Center
08:20AM 32.7103 -97.3811 140° Southeast 323 372 10,900 2,520 Climbing Fort Worth Center
08:21AM 32.6419 -97.2986 135° Southeast 350 403 13,600 2,640 Climbing Fort Worth Center
08:22AM 32.5744 -97.2169 134° Southeast 347 399 16,300 2,220 Climbing Fort Worth Center
08:23AM 32.4772 -97.1683 157° South 371 427 18,200 2,340 Climbing Fort Worth Center
08:24AM 32.3833 -97.1114 153° Southeast 379 436 21,100 2,580 Climbing Fort Worth Center
08:25AM 32.2903 -97.0539 152° Southeast 377 434 23,500 1,980 Climbing Fort Worth Center
08:26AM 32.2050 -97.0022 153° Southeast 382 440 25,100 1,500 Climbing Fort Worth Center
08:27AM 32.1047 -96.9403 152° Southeast 399 459 26,600 1,620 Climbing Fort Worth Center
08:28AM 31.9800 -96.8631 152° Southeast 418 481 28,400 1,440 Climbing Fort Worth Center
08:29AM 31.8794 -96.8025 153° Southeast 425 489 29,600 1,140 Climbing Fort Worth Center
08:30AM 31.7694 -96.7375 153° Southeast 434 499 30,800 660 Climbing Fort Worth Center
08:31AM 31.6544 -96.6725 154° Southeast 448 516 31,000 60 Climbing Fort Worth Center
08:32AM 31.5342 -96.6006 153° Southeast 470 541 31,000 -180 Level Houston Center
08:33AM 31.4156 -96.5281 152° Southeast 473 544 30,700 -900 Descending Houston Center
08:34AM 31.2953 -96.4561 153° Southeast 477 549 29,200 -1,260 Descending Houston Center
08:35AM 31.1947 -96.3953 153° Southeast 480 552 28,200 -1,440 Descending Houston Center
08:36AM 31.0764 -96.3269 154° Southeast 471 542 26,300 -2,040 Descending Houston Center
08:37AM 30.9572 -96.2539 152° Southeast 475 547 24,100 -2,520 Descending Houston Center
08:38AM 30.8319 -96.1483 144° Southeast 471 542 21,200 -2,880 Descending Houston Center
08:39AM 30.7347 -96.0600 142° Southeast 442 509 18,300 -2,820 Descending Houston Center
08:39AM 30.6822 -96.0111 141° Southeast 392 451 16,700 -2,640 Descending Houston Center
08:40AM 30.6083 -95.9567 148° Southeast 346 398 14,400 -2,400 Descending Houston Center
08:41AM 30.5697 -95.9283 148° Southeast 352 405 13,300 -1,320 Descending Houston Center
08:41AM 30.5281 -95.9028 152° Southeast 338 389 13,100 -300 Descending Houston Center
08:42AM 30.4875 -95.8769 151° Southeast 339 390 13,000  Descending Houston Center
08:42AM 30.4306 -95.8439 153° Southeast 337 388 13,100  Climbing Houston Center
08:43AM 30.4042 -95.8239 147° Southeast 339 390 13,000  Descending Houston Center
08:43AM 30.3481 -95.7881 151° Southeast 344 396 13,100 -300 Climbing Houston Center
08:44AM 30.3231 -95.7675 145° Southeast 342 394 12,700 -1,620 Descending Houston Center
08:45AM 30.2581 -95.7211 148° Southeast 335 386 11,300 -1,800 Descending Houston Center
08:45AM 30.2450 -95.7103 144° Southeast 336 387 10,900 -1,140 Descending Houston Center
08:46AM 30.1911 -95.6758 151° Southeast 314 361 10,300 -1,380 Descending Houston Center
08:46AM 30.1683 -95.6594 148° Southeast 324 373 9,500 -2,160 Descending Houston Center
08:46AM 30.1189 -95.6408 162° South 310 357 8,400 -1,680 Descending Houston Center
08:47AM 30.0892 -95.6275 159° South 307 353 7,800 -1,200 Descending Houston Center
08:48AM 30.0344 -95.6122 166° South 278 320 7,100 -780 Descending Houston Center
08:48AM 30.0167 -95.6083 169° South 279 321 7,000  Descending Houston Center
08:48AM 29.9661 -95.6011 173° South 277 319 7,100  Climbing Houston Center
08:49AM 29.9406 -95.5958 170° South 275 316 7,000  Descending Houston Center
08:49AM 29.8847 -95.5817 168° South 290 334 7,100  Climbing Houston Center
08:50AM 29.8461 -95.5711 167° South 287 330 7,000  Descending Houston Center
08:50AM 29.8094 -95.5617 167° South 273 314 7,100 -540 Climbing Houston Center
08:51AM 29.7722 -95.5531 169° South 279 321 6,500 -1,020 Descending Houston Center
08:52AM 29.7342 -95.5442 169° South 278 320 6,100 -540 Descending Houston Center
08:52AM 29.6983 -95.5339 166° South 275 316 6,000 -840 Descending Houston Center
08:53AM 29.6589 -95.5242 168° South 267 307 5,300 -1,980 Descending Houston Center
08:53AM 29.6239 -95.5147 167° South 276 318 4,000 -2,040 Descending Houston Center
08:54AM 29.5794 -95.5025 167° South 278 320 3,300 -1,020 Descending Houston Center
08:54AM 29.5592 -95.4767 132° Southeast 268 308 3,000 -240 Descending Houston Center
08:55AM 29.5364 -95.4453 130° Southeast 226 260 3,100 -120 Climbing Houston Center
08:55AM 29.5244 -95.4167 116° Southeast 238 274 2,900 -660 Descending Houston Center
08:56AM 29.5456 -95.3842 53° Northeast 191 220 2,400 -900 Descending Houston Center
08:56AM 29.5589 -95.3756 29° Northeast 206 237 2,000 -900 Descending Houston Center
08:57AM 29.5842 -95.3481 43° Northeast 152 175 1,500 -840 Descending Houston Center
08:57AM 29.5914 -95.3400 44° Northeast 174 200 1,200 -720 Descending Houston Center
08:58AM 29.6069 -95.3214 46° Northeast 119 137 800 -540 Descending Houston Center
08:58AM 29.6144 -95.3139 41° Northeast 135 155 700 -600 Descending Houston Center
08:59AM 29.6317 -95.2944 44° Northeast 132 152 200 -600 Descending Houston Center
08:59AM 29.6414 -95.2831 46° Northeast 127 146 100 -240 Descending Houston Center